createdAt,value
2018-12-30T00:00:22.799Z,2.40
2018-12-30T00:02:51.713Z,2.27
2018-12-30T00:05:20.867Z,2.60
2018-12-30T00:07:49.939Z,2.93
2018-12-30T00:10:19.156Z,1.97
2018-12-30T00:12:48.072Z,2.90
2018-12-30T00:15:17.294Z,3.40
2018-12-30T00:17:46.152Z,2.77
2018-12-30T00:20:15.042Z,2.90
2018-12-30T00:22:43.862Z,2.60
2018-12-30T00:25:12.732Z,3.17
2018-12-30T00:27:41.526Z,4.27
2018-12-30T00:30:11.057Z,2.43
2018-12-30T00:32:39.864Z,2.70
2018-12-30T00:35:08.806Z,3.87
2018-12-30T00:37:38.004Z,3.60
2018-12-30T00:40:06.955Z,4.77
2018-12-30T00:42:36.182Z,5.30
2018-12-30T00:45:05.423Z,3.20
2018-12-30T00:47:34.287Z,5.00
2018-12-30T00:50:03.353Z,3.70
2018-12-30T00:52:32.652Z,3.50
2018-12-30T00:55:01.507Z,3.03
2018-12-30T00:57:30.575Z,2.90
2018-12-30T00:59:59.406Z,4.70
2018-12-30T01:02:28.254Z,3.30
2018-12-30T01:04:57.174Z,2.83
2018-12-30T01:07:26.086Z,4.50
2018-12-30T01:09:55.283Z,3.60
2018-12-30T01:12:24.222Z,4.30
2018-12-30T01:15:12.348Z,3.00
2018-12-30T01:17:41.315Z,3.43
2018-12-30T01:20:10.564Z,3.53
2018-12-30T01:22:39.356Z,2.63
2018-12-30T01:25:08.575Z,4.27
2018-12-30T01:27:37.757Z,4.13
2018-12-30T01:30:07.073Z,3.30
2018-12-30T01:32:35.869Z,2.33
2018-12-30T01:35:04.895Z,3.07
2018-12-30T01:37:33.700Z,3.00
2018-12-30T01:40:02.845Z,2.70
2018-12-30T01:42:31.718Z,2.80
2018-12-30T01:45:00.515Z,4.60
2018-12-30T01:47:29.556Z,4.20
2018-12-30T01:49:58.476Z,3.60
2018-12-30T01:52:27.776Z,3.30
2018-12-30T01:54:56.621Z,3.20
2018-12-30T01:57:25.501Z,4.70
2018-12-30T01:59:54.839Z,2.97
2018-12-30T02:02:23.756Z,3.10
2018-12-30T02:04:52.598Z,3.37
2018-12-30T02:07:21.585Z,3.93
2018-12-30T02:09:50.443Z,3.90
2018-12-30T02:12:20.108Z,3.13
2018-12-30T02:14:48.940Z,3.43
2018-12-30T02:17:17.740Z,3.33
2018-12-30T02:19:46.563Z,3.53
2018-12-30T02:22:15.469Z,2.50
2018-12-30T02:24:44.639Z,4.23
2018-12-30T02:27:13.537Z,2.70
2018-12-30T02:29:42.334Z,3.33
2018-12-30T02:32:11.208Z,4.37
2018-12-30T02:34:40.040Z,3.90
2018-12-30T02:37:09.238Z,2.80
2018-12-30T02:39:38.032Z,3.90
2018-12-30T02:42:06.875Z,3.20
2018-12-30T02:44:35.983Z,4.17
2018-12-30T02:47:04.876Z,3.70
2018-12-30T02:49:33.978Z,2.87
2018-12-30T02:52:02.816Z,2.30
2018-12-30T02:54:31.643Z,3.20
2018-12-30T02:57:00.765Z,2.60
2018-12-30T02:59:29.584Z,4.53
2018-12-30T03:01:58.566Z,3.40
2018-12-30T03:04:27.375Z,3.33
2018-12-30T03:06:56.212Z,1.67
2018-12-30T03:09:25.054Z,3.57
2018-12-30T03:11:53.867Z,3.10
2018-12-30T03:14:22.879Z,4.20
2018-12-30T03:16:51.916Z,3.40
2018-12-30T03:19:21.072Z,2.43
2018-12-30T03:21:49.906Z,4.23
2018-12-30T03:24:18.734Z,2.40
2018-12-30T03:26:47.522Z,4.03
2018-12-30T03:29:16.317Z,4.30
2018-12-30T03:31:45.182Z,2.73
2018-12-30T03:34:14.206Z,3.00
2018-12-30T03:36:43.317Z,3.33
2018-12-30T03:39:12.231Z,3.90
2018-12-30T03:41:41.047Z,3.43
2018-12-30T03:44:09.888Z,4.30
2018-12-30T03:46:38.788Z,4.13
2018-12-30T03:49:07.624Z,4.00
2018-12-30T03:51:36.872Z,4.03
2018-12-30T03:54:05.811Z,3.03
2018-12-30T03:56:34.618Z,3.10
2018-12-30T03:59:03.423Z,3.87
2018-12-30T04:01:32.669Z,4.70
2018-12-30T04:04:01.508Z,1.90
2018-12-30T04:06:30.861Z,3.13
2018-12-30T04:08:59.668Z,2.90
2018-12-30T04:11:28.503Z,2.83
2018-12-30T04:13:57.435Z,3.50
2018-12-30T04:16:26.236Z,3.30
2018-12-30T04:18:55.028Z,2.43
2018-12-30T04:21:23.931Z,2.80
2018-12-30T04:23:52.792Z,2.80
2018-12-30T04:26:21.958Z,3.17
2018-12-30T04:28:50.808Z,3.60
2018-12-30T04:31:19.979Z,2.97
2018-12-30T04:33:49.057Z,4.00
2018-12-30T04:36:18.351Z,3.17
2018-12-30T04:38:47.159Z,4.20
2018-12-30T04:41:16.203Z,3.47
2018-12-30T04:43:45.051Z,3.43
2018-12-30T04:46:13.975Z,2.77
2018-12-30T04:48:42.791Z,2.30
2018-12-30T04:51:11.603Z,1.93
2018-12-30T04:53:40.517Z,4.00
2018-12-30T04:56:09.315Z,4.43
2018-12-30T04:58:38.258Z,4.27
2018-12-30T05:01:07.052Z,2.43
2018-12-30T05:03:36.172Z,4.43
2018-12-30T05:06:05.719Z,2.93
2018-12-30T05:08:34.566Z,3.67
2018-12-30T05:11:04.264Z,2.70
2018-12-30T05:13:33.060Z,3.77
2018-12-30T05:16:01.857Z,4.30
2018-12-30T05:18:31.060Z,4.70
2018-12-30T05:21:00.227Z,3.03
2018-12-30T05:23:29.092Z,3.33
2018-12-30T05:25:57.881Z,3.43
2018-12-30T05:28:26.898Z,3.53
2018-12-30T05:30:55.771Z,3.23
2018-12-30T05:33:24.807Z,2.93
2018-12-30T05:35:53.627Z,3.70
2018-12-30T05:38:22.459Z,3.10
2018-12-30T05:40:51.555Z,3.33
2018-12-30T05:43:20.381Z,4.43
2018-12-30T05:45:49.420Z,2.87
2018-12-30T05:48:18.531Z,3.67
2018-12-30T05:50:47.720Z,4.03
2018-12-30T05:53:16.603Z,4.47
2018-12-30T05:55:45.641Z,2.03
2018-12-30T05:58:14.465Z,3.13
2018-12-30T06:00:43.277Z,2.63
2018-12-30T06:03:12.330Z,4.10
2018-12-30T06:05:41.172Z,2.50
2018-12-30T06:08:10.244Z,3.53
2018-12-30T06:10:39.272Z,3.23
2018-12-30T06:13:08.071Z,3.00
2018-12-30T06:15:36.867Z,2.83
2018-12-30T06:18:05.702Z,2.97
2018-12-30T06:20:34.496Z,4.50
2018-12-30T06:23:03.295Z,3.10
2018-12-30T06:25:32.356Z,3.10
2018-12-30T06:28:01.249Z,3.00
2018-12-30T06:30:30.139Z,2.00
2018-12-30T06:32:58.948Z,2.70
2018-12-30T06:35:28.050Z,4.23
2018-12-30T06:37:56.880Z,2.30
2018-12-30T06:40:26.067Z,2.73
2018-12-30T06:42:54.907Z,4.00
2018-12-30T06:45:23.717Z,3.37
2018-12-30T06:47:52.518Z,3.07
2018-12-30T06:50:21.339Z,2.23
2018-12-30T06:52:57.381Z,3.67
2018-12-30T06:55:21.034Z,5.10
2018-12-30T06:57:50.143Z,3.60
2018-12-30T07:00:18.979Z,3.23
2018-12-30T07:02:47.796Z,3.70
2018-12-30T07:05:16.632Z,3.87
2018-12-30T07:07:45.521Z,5.20
2018-12-30T07:10:14.489Z,4.07
2018-12-30T07:12:43.294Z,2.97
2018-12-30T07:15:12.475Z,4.17
2018-12-30T07:17:41.383Z,2.97
2018-12-30T07:20:10.199Z,3.00
2018-12-30T07:22:39.011Z,3.63
2018-12-30T07:25:07.799Z,3.80
2018-12-30T07:27:36.627Z,2.73
2018-12-30T07:30:05.948Z,4.10
2018-12-30T07:32:34.910Z,3.03
2018-12-30T07:35:03.771Z,4.37
2018-12-30T07:37:32.559Z,2.80
2018-12-30T07:40:01.621Z,2.90
2018-12-30T07:42:30.413Z,2.57
2018-12-30T07:44:59.231Z,3.93
2018-12-30T07:47:28.092Z,2.30
2018-12-30T07:49:57.043Z,4.60
2018-12-30T07:52:25.844Z,2.40
2018-12-30T07:54:54.736Z,2.63
2018-12-30T07:57:23.900Z,3.93
2018-12-30T07:59:53.151Z,2.20
2018-12-30T08:02:21.970Z,2.90
2018-12-30T08:04:50.866Z,3.67
2018-12-30T08:07:19.999Z,4.33
2018-12-30T08:09:48.827Z,3.90
2018-12-30T08:12:17.970Z,3.63
2018-12-30T08:14:47.010Z,3.20
2018-12-30T08:17:15.853Z,3.00
2018-12-30T08:19:44.660Z,3.33
2018-12-30T08:22:13.661Z,2.27
2018-12-30T08:24:42.475Z,2.90
2018-12-30T08:27:11.836Z,4.03
2018-12-30T08:29:40.725Z,2.60
2018-12-30T08:32:09.565Z,3.43
2018-12-30T08:34:38.447Z,2.90
2018-12-30T08:37:07.261Z,4.00
2018-12-30T08:39:36.192Z,1.40
2018-12-30T08:42:05.960Z,3.37
2018-12-30T08:44:34.768Z,2.90
2018-12-30T08:47:03.868Z,3.13
2018-12-30T08:49:32.908Z,2.60
2018-12-30T08:52:01.700Z,2.20
2018-12-30T08:54:30.518Z,3.23
2018-12-30T08:56:59.421Z,2.83
2018-12-30T08:59:28.301Z,2.27
2018-12-30T09:01:57.433Z,3.47
2018-12-30T09:04:26.467Z,3.17
2018-12-30T09:06:55.348Z,2.07
2018-12-30T09:09:24.398Z,2.37
2018-12-30T09:11:53.221Z,2.83
2018-12-30T09:14:23.241Z,2.13
2018-12-30T09:16:52.045Z,3.40
2018-12-30T09:19:20.865Z,2.50
2018-12-30T09:21:50.021Z,2.80
2018-12-30T09:24:18.853Z,1.57
2018-12-30T09:26:47.736Z,3.60
2018-12-30T09:29:17.169Z,3.63
2018-12-30T09:31:45.975Z,4.53
2018-12-30T09:34:14.781Z,2.77
2018-12-30T09:36:43.645Z,6.83
2018-12-30T09:39:12.482Z,3.60
2018-12-30T09:41:41.305Z,3.43
2018-12-30T09:44:10.113Z,3.60
2018-12-30T09:46:39.068Z,1.87
2018-12-30T09:49:07.890Z,3.63
2018-12-30T09:51:37.051Z,5.43
2018-12-30T09:54:06.159Z,3.20
2018-12-30T09:56:34.975Z,2.90
2018-12-30T09:59:04.128Z,2.80
2018-12-30T10:01:33.232Z,3.07
2018-12-30T10:04:02.551Z,3.50
2018-12-30T10:06:31.528Z,2.50
2018-12-30T10:09:00.660Z,2.70
2018-12-30T10:11:29.537Z,1.83
2018-12-30T10:13:58.838Z,2.77
2018-12-30T10:16:28.907Z,2.47
2018-12-30T10:18:57.774Z,2.70
2018-12-30T10:21:26.847Z,2.83
2018-12-30T10:23:55.914Z,2.70
2018-12-30T10:26:24.707Z,2.63
2018-12-30T10:28:53.632Z,3.50
2018-12-30T10:31:22.427Z,3.00
2018-12-30T10:33:51.499Z,3.30
2018-12-30T10:36:20.302Z,3.80
2018-12-30T10:38:49.176Z,3.70
2018-12-30T10:41:18.039Z,3.00
2018-12-30T10:43:46.875Z,3.30
2018-12-30T10:46:15.756Z,4.53
2018-12-30T10:48:44.633Z,4.83
2018-12-30T10:51:14.251Z,4.97
2018-12-30T10:53:43.043Z,4.17
2018-12-30T10:56:11.865Z,5.57
2018-12-30T10:58:42.434Z,5.40
2018-12-30T11:01:12.284Z,5.40
2018-12-30T11:03:42.485Z,5.97
2018-12-30T11:06:12.182Z,7.17
2018-12-30T11:08:41.288Z,4.50
2018-12-30T11:11:10.176Z,4.13
2018-12-30T11:13:39.075Z,5.20
2018-12-30T11:16:08.176Z,4.20
2018-12-30T11:18:37.840Z,7.00
2018-12-30T11:21:07.367Z,4.53
2018-12-30T11:23:37.214Z,4.60
2018-12-30T11:26:06.864Z,4.40
2018-12-30T11:28:36.941Z,4.30
2018-12-30T11:31:07.825Z,4.40
2018-12-30T11:33:37.110Z,4.10
2018-12-30T11:36:06.370Z,4.07
2018-12-30T11:38:35.899Z,4.20
2018-12-30T11:41:05.133Z,4.17
2018-12-30T11:43:33.932Z,7.63
2018-12-30T11:46:03.555Z,2.83
2018-12-30T11:48:32.356Z,3.40
2018-12-30T11:51:01.389Z,3.50
2018-12-30T11:53:30.516Z,3.73
2018-12-30T11:55:59.655Z,4.50
2018-12-30T11:58:28.586Z,4.13
2018-12-30T12:00:57.699Z,4.70
2018-12-30T12:03:26.558Z,4.53
2018-12-30T12:05:55.912Z,4.07
2018-12-30T12:08:24.911Z,4.57
2018-12-30T12:10:53.729Z,3.20
2018-12-30T12:13:22.531Z,4.40
2018-12-30T12:15:51.595Z,5.70
2018-12-30T12:18:20.614Z,4.43
2018-12-30T12:20:49.466Z,4.77
2018-12-30T12:23:18.283Z,5.20
2018-12-30T12:25:47.089Z,3.60
2018-12-30T12:28:16.039Z,4.40
2018-12-30T12:30:44.910Z,4.40
2018-12-30T12:33:14.519Z,4.20
2018-12-30T12:35:43.451Z,5.57
2018-12-30T12:38:12.479Z,4.23
2018-12-30T12:40:41.285Z,5.50
2018-12-30T12:43:10.816Z,5.90
2018-12-30T12:45:39.621Z,4.30
2018-12-30T12:48:08.750Z,5.40
2018-12-30T12:50:37.757Z,4.93
2018-12-30T12:53:06.591Z,4.50
2018-12-30T12:55:35.455Z,6.60
2018-12-30T12:58:04.572Z,5.60
2018-12-30T13:00:33.655Z,6.37
2018-12-30T13:03:02.547Z,5.80
2018-12-30T13:05:31.611Z,6.20
2018-12-30T13:08:01.560Z,5.17
2018-12-30T13:10:30.379Z,5.83
2018-12-30T13:12:59.567Z,6.00
2018-12-30T13:15:28.829Z,5.57
2018-12-30T13:17:57.929Z,5.10
2018-12-30T13:20:38.781Z,4.90
2018-12-30T13:23:07.587Z,4.83
2018-12-30T13:25:36.795Z,6.47
2018-12-30T13:28:06.697Z,4.70
2018-12-30T13:30:35.573Z,5.40
2018-12-30T13:33:04.543Z,6.40
2018-12-30T13:35:33.498Z,5.10
2018-12-30T13:38:02.729Z,6.13
2018-12-30T13:40:31.520Z,6.57
2018-12-30T13:43:00.835Z,3.90
2018-12-30T13:45:30.000Z,6.27
2018-12-30T13:47:58.895Z,7.23
2018-12-30T13:50:28.287Z,6.60
2018-12-30T13:52:57.149Z,5.40
2018-12-30T13:55:26.062Z,6.03
2018-12-30T13:57:55.180Z,4.77
2018-12-30T14:00:23.999Z,6.27
2018-12-30T14:02:52.870Z,5.23
2018-12-30T14:05:21.852Z,6.43
2018-12-30T14:07:50.708Z,4.87
2018-12-30T14:10:19.687Z,6.90
2018-12-30T14:12:48.794Z,6.53
2018-12-30T14:15:17.656Z,5.63
2018-12-30T14:17:46.499Z,5.97
2018-12-30T14:20:15.627Z,6.07
2018-12-30T14:22:44.516Z,8.30
2018-12-30T14:25:13.392Z,7.40
2018-12-30T14:27:42.216Z,6.70
2018-12-30T14:30:11.236Z,5.57
2018-12-30T14:32:40.171Z,5.53
2018-12-30T14:35:09.355Z,5.07
2018-12-30T14:37:38.287Z,5.70
2018-12-30T14:40:07.411Z,4.60
2018-12-30T14:42:36.283Z,5.30
2018-12-30T14:45:06.022Z,5.70
2018-12-30T14:47:34.939Z,5.10
2018-12-30T14:50:04.203Z,5.47
2018-12-30T14:52:33.536Z,5.43
2018-12-30T14:55:03.883Z,4.70
2018-12-30T14:57:33.179Z,5.80
2018-12-30T15:00:02.731Z,5.10
2018-12-30T15:02:31.735Z,6.53
2018-12-30T15:05:00.729Z,6.43
2018-12-30T15:07:29.726Z,4.33
2018-12-30T15:09:58.915Z,5.20
2018-12-30T15:12:28.011Z,6.47
2018-12-30T15:14:57.211Z,6.40
2018-12-30T15:17:26.048Z,4.97
2018-12-30T15:19:54.895Z,5.53
2018-12-30T15:22:23.795Z,5.83
2018-12-30T15:24:52.663Z,5.37
2018-12-30T15:27:21.981Z,6.00
2018-12-30T15:29:50.784Z,6.37
2018-12-30T15:32:19.957Z,4.77
2018-12-30T15:34:48.785Z,6.53
2018-12-30T15:37:17.731Z,7.13
2018-12-30T15:39:46.549Z,7.83
2018-12-30T15:42:19.031Z,5.83
2018-12-30T15:44:46.138Z,5.20
2018-12-30T15:47:15.008Z,6.13
2018-12-30T15:49:43.966Z,5.83
2018-12-30T15:52:12.805Z,5.97
2018-12-30T15:54:42.597Z,7.70
2018-12-30T15:57:11.501Z,6.73
2018-12-30T15:59:40.314Z,5.63
2018-12-30T16:02:09.135Z,6.80
2018-12-30T16:04:38.149Z,7.10
2018-12-30T16:07:08.403Z,7.30
2018-12-30T16:09:37.568Z,7.73
2018-12-30T16:12:06.919Z,8.93
2018-12-30T16:14:35.845Z,8.33
2018-12-30T16:17:05.079Z,9.40
2018-12-30T16:19:34.109Z,7.83
2018-12-30T16:22:03.079Z,7.63
2018-12-30T16:24:31.945Z,7.33
2018-12-30T16:27:01.189Z,7.63
2018-12-30T16:29:30.064Z,8.53
2018-12-30T16:31:58.896Z,8.47
2018-12-30T16:34:28.821Z,7.93
2018-12-30T16:36:57.911Z,7.30
2018-12-30T16:39:30.508Z,6.40
2018-12-30T16:41:59.385Z,7.47
2018-12-30T16:44:28.272Z,7.60
2018-12-30T16:46:57.066Z,6.80
2018-12-30T16:49:25.936Z,8.70
2018-12-30T16:51:54.849Z,9.73
2018-12-30T16:54:23.723Z,8.87
2018-12-30T16:56:52.561Z,8.30
2018-12-30T16:59:21.426Z,7.77
2018-12-30T17:01:50.455Z,9.17
2018-12-30T17:04:19.519Z,8.50
2018-12-30T17:06:48.340Z,8.40
2018-12-30T17:09:17.607Z,9.20
2018-12-30T17:11:46.426Z,9.53
2018-12-30T17:14:15.266Z,11.20
2018-12-30T17:16:44.107Z,10.53
2018-12-30T17:19:13.254Z,11.13
2018-12-30T17:21:42.416Z,10.53
2018-12-30T17:24:11.311Z,10.80
2018-12-30T17:26:40.314Z,11.30
2018-12-30T17:29:09.235Z,12.93
2018-12-30T17:31:38.098Z,11.83
2018-12-30T17:34:07.285Z,11.87
2018-12-30T17:36:36.282Z,12.63
2018-12-30T17:39:06.923Z,11.87
2018-12-30T17:41:35.936Z,12.07
2018-12-30T17:44:04.847Z,12.77
2018-12-30T17:46:34.392Z,13.03
2018-12-30T17:49:04.263Z,12.80
2018-12-30T17:51:33.199Z,13.13
2018-12-30T17:54:02.091Z,13.53
2018-12-30T17:56:30.965Z,12.30
2018-12-30T17:58:59.899Z,13.30
2018-12-30T18:01:28.746Z,13.90
2018-12-30T18:03:57.682Z,13.13
2018-12-30T18:06:26.830Z,13.37
2018-12-30T18:08:55.727Z,14.43
2018-12-30T18:11:24.566Z,14.07
2018-12-30T18:13:53.505Z,14.53
2018-12-30T18:16:22.383Z,15.93
2018-12-30T18:18:51.183Z,13.60
2018-12-30T18:21:20.376Z,13.70
2018-12-30T18:23:49.497Z,15.93
2018-12-30T18:26:18.362Z,15.90
2018-12-30T18:28:47.327Z,16.90
2018-12-30T18:31:16.271Z,16.80
2018-12-30T18:33:45.598Z,16.97
2018-12-30T18:36:14.524Z,14.97
2018-12-30T18:38:43.416Z,15.53
2018-12-30T18:41:12.352Z,14.43
2018-12-30T18:43:41.297Z,16.37
2018-12-30T18:46:10.559Z,16.93
2018-12-30T18:48:39.516Z,17.20
2018-12-30T18:51:08.339Z,16.57
2018-12-30T18:53:37.216Z,18.30
2018-12-30T18:56:06.960Z,18.03
2018-12-30T18:58:36.395Z,19.67
2018-12-30T19:01:05.299Z,18.80
2018-12-30T19:03:34.587Z,16.57
2018-12-30T19:06:03.894Z,17.47
2018-12-30T19:08:32.763Z,15.07
2018-12-30T19:11:01.885Z,16.57
2018-12-30T19:13:30.870Z,19.53
2018-12-30T19:15:59.691Z,19.37
2018-12-30T19:18:28.514Z,19.17
2018-12-30T19:20:57.391Z,17.80
2018-12-30T19:23:26.249Z,19.33
2018-12-30T19:26:00.966Z,17.80
2018-12-30T19:28:25.796Z,19.10
2018-12-30T19:30:54.796Z,18.17
2018-12-30T19:33:23.810Z,18.93
2018-12-30T19:35:52.684Z,18.73
2018-12-30T19:38:21.579Z,17.60
2018-12-30T19:40:50.443Z,19.93
2018-12-30T19:43:19.234Z,18.40
2018-12-30T19:45:48.111Z,18.50
2018-12-30T19:48:16.951Z,17.33
2018-12-30T19:50:46.610Z,18.50
2018-12-30T19:53:15.421Z,18.00
2018-12-30T19:55:44.239Z,17.97
2018-12-30T19:58:13.457Z,18.70
2018-12-30T20:00:42.447Z,19.67
2018-12-30T20:03:11.310Z,18.53
2018-12-30T20:05:40.231Z,19.30
2018-12-30T20:08:09.075Z,19.20
2018-12-30T20:10:38.007Z,20.60
2018-12-30T20:13:09.071Z,19.67
2018-12-30T20:15:37.663Z,22.80
2018-12-30T20:18:07.045Z,20.90
2018-12-30T20:20:36.485Z,21.23
2018-12-30T20:23:05.448Z,23.90
2018-12-30T20:25:35.447Z,20.43
2018-12-30T20:28:04.771Z,22.73
2018-12-30T20:30:33.711Z,20.67
2018-12-30T20:33:02.723Z,21.60
2018-12-30T20:35:31.683Z,20.57
2018-12-30T20:38:00.543Z,23.70
2018-12-30T20:40:29.529Z,23.60
2018-12-30T20:42:58.758Z,24.73
2018-12-30T20:45:27.587Z,23.73
2018-12-30T20:47:56.764Z,21.87
2018-12-30T20:50:25.709Z,21.73
2018-12-30T20:52:54.821Z,21.67
2018-12-30T20:55:23.733Z,24.30
2018-12-30T20:57:52.613Z,21.83
2018-12-30T21:00:21.616Z,23.47
2018-12-30T21:02:50.589Z,22.40
2018-12-30T21:05:19.525Z,20.87
2018-12-30T21:07:48.458Z,21.97
2018-12-30T21:10:17.318Z,19.40
2018-12-30T21:12:46.567Z,17.73
2018-12-30T21:15:15.646Z,17.43
2018-12-30T21:17:44.608Z,19.10
2018-12-30T21:20:13.616Z,16.90
2018-12-30T21:22:42.608Z,16.67
2018-12-30T21:25:11.634Z,16.50
2018-12-30T21:27:40.503Z,17.03
2018-12-30T21:30:09.850Z,15.53
2018-12-30T21:32:38.912Z,14.80
2018-12-30T21:35:08.234Z,14.93
2018-12-30T21:37:37.195Z,15.50
2018-12-30T21:40:06.522Z,16.00
2018-12-30T21:42:35.419Z,16.90
2018-12-30T21:45:04.764Z,18.13
2018-12-30T21:47:33.580Z,16.20
2018-12-30T21:50:02.982Z,15.57
2018-12-30T21:52:32.061Z,15.93
2018-12-30T21:55:00.883Z,15.07
2018-12-30T21:57:29.710Z,18.90
2018-12-30T21:59:58.550Z,16.30
2018-12-30T22:02:27.383Z,17.37
2018-12-30T22:04:56.367Z,16.73
2018-12-30T22:07:25.215Z,16.27
2018-12-30T22:09:54.250Z,16.43
2018-12-30T22:12:23.117Z,15.90
2018-12-30T22:14:51.991Z,14.33
2018-12-30T22:17:20.912Z,14.17
2018-12-30T22:19:49.759Z,12.73
2018-12-30T22:22:18.587Z,11.40
2018-12-30T22:24:47.580Z,14.30
2018-12-30T22:27:16.441Z,13.53
2018-12-30T22:29:45.604Z,13.77
2018-12-30T22:32:14.528Z,14.70
2018-12-30T22:34:43.385Z,13.90
2018-12-30T22:37:12.227Z,13.50
2018-12-30T22:39:41.095Z,14.80
2018-12-30T22:42:10.275Z,12.57
2018-12-30T22:44:39.444Z,13.90
2018-12-30T22:47:08.476Z,13.93
2018-12-30T22:49:37.292Z,14.20
2018-12-30T22:52:06.146Z,13.37
2018-12-30T22:54:35.379Z,13.37
2018-12-30T22:57:04.364Z,13.67
2018-12-30T22:59:33.256Z,13.27
2018-12-30T23:02:02.178Z,12.07
2018-12-30T23:04:30.991Z,13.10
2018-12-30T23:06:59.913Z,13.67
2018-12-30T23:09:28.781Z,13.63
2018-12-30T23:11:57.699Z,12.97
2018-12-30T23:14:26.508Z,12.80
2018-12-30T23:16:55.407Z,12.93
2018-12-30T23:19:24.271Z,13.60
2018-12-30T23:21:53.086Z,13.43
2018-12-30T23:24:22.208Z,15.20
2018-12-30T23:26:51.065Z,15.53
2018-12-30T23:29:19.902Z,14.13
2018-12-30T23:31:48.755Z,15.00
2018-12-30T23:34:17.651Z,15.37
2018-12-30T23:36:46.522Z,16.17
2018-12-30T23:39:15.360Z,14.60
2018-12-30T23:41:44.242Z,15.80
2018-12-30T23:44:13.256Z,15.90
2018-12-30T23:46:42.488Z,16.30
2018-12-30T23:49:11.312Z,16.20
2018-12-30T23:51:40.128Z,15.17
2018-12-30T23:54:08.962Z,14.53
2018-12-30T23:56:37.827Z,13.27
2018-12-30T23:59:06.656Z,13.13
